createdAt,value
2018-04-12T00:00:28.249Z,0
2018-04-12T00:01:38.319Z,0
2018-04-12T00:02:47.890Z,0
2018-04-12T00:03:57.698Z,0
2018-04-12T00:05:07.534Z,0
2018-04-12T00:06:17.353Z,0
2018-04-12T00:07:27.432Z,0
2018-04-12T00:08:37.255Z,0
2018-04-12T00:09:47.064Z,0
2018-04-12T00:10:56.910Z,0
2018-04-12T00:12:06.725Z,0
2018-04-12T00:13:16.594Z,0
2018-04-12T00:14:26.409Z,0
2018-04-12T00:15:36.505Z,0
2018-04-12T00:16:46.315Z,0
2018-04-12T00:17:56.412Z,0
2018-04-12T00:19:06.231Z,0
2018-04-12T00:20:16.301Z,0
2018-04-12T00:21:26.374Z,0
2018-04-12T00:22:36.434Z,0
2018-04-12T00:23:45.714Z,0
2018-04-12T00:24:55.790Z,0
2018-04-12T00:26:05.874Z,0
2018-04-12T00:27:15.953Z,0
2018-04-12T00:28:26.039Z,0
2018-04-12T00:29:36.131Z,0
2018-04-12T00:30:46.253Z,0
2018-04-12T00:31:56.359Z,0
2018-04-12T00:33:06.431Z,0
2018-04-12T00:34:16.544Z,0
2018-04-12T00:35:26.614Z,0
2018-04-12T00:36:36.747Z,0
2018-04-12T00:37:46.556Z,0
2018-04-12T00:38:56.939Z,0
2018-04-12T00:40:07.014Z,0
2018-04-12T00:41:16.827Z,0
2018-04-12T00:42:26.899Z,0
2018-04-12T00:43:36.980Z,0
2018-04-12T00:44:47.066Z,0
2018-04-12T00:45:57.120Z,0
2018-04-12T00:47:07.187Z,0
2018-04-12T00:48:17.264Z,0
2018-04-12T00:49:27.438Z,0
2018-04-12T00:50:36.999Z,0
2018-04-12T00:51:47.076Z,0
2018-04-12T00:52:57.155Z,0
2018-04-12T00:54:06.971Z,0
2018-04-12T00:55:17.069Z,0
2018-04-12T00:56:26.903Z,0
2018-04-12T00:57:37.001Z,0
2018-04-12T00:58:46.814Z,0
2018-04-12T00:59:56.899Z,0
2018-04-12T01:01:06.734Z,0
2018-04-12T01:02:16.824Z,0
2018-04-12T01:03:26.894Z,0
2018-04-12T01:04:36.974Z,0
2018-04-12T01:05:47.086Z,0
2018-04-12T01:06:57.172Z,0
2018-04-12T01:08:07.263Z,0
2018-04-12T01:09:17.350Z,0
2018-04-12T01:10:27.425Z,0
2018-04-12T01:11:37.508Z,0
2018-04-12T01:12:47.621Z,0
2018-04-12T01:13:57.695Z,0
2018-04-12T01:15:07.778Z,0
2018-04-12T01:16:17.860Z,0
2018-04-12T01:17:27.689Z,0
2018-04-12T01:18:37.505Z,0
2018-04-12T01:19:47.592Z,0
2018-04-12T01:20:57.652Z,0
2018-04-12T01:22:07.484Z,0
2018-04-12T01:23:17.627Z,0
2018-04-12T01:24:27.444Z,0
2018-04-12T01:25:37.537Z,0
2018-04-12T01:26:47.602Z,0
2018-04-12T01:27:57.687Z,0
2018-04-12T01:29:07.771Z,0
2018-04-12T01:30:17.859Z,0
2018-04-12T01:31:27.935Z,0
2018-04-12T01:32:37.760Z,0
2018-04-12T01:33:47.844Z,0
2018-04-12T01:34:57.906Z,0
2018-04-12T01:36:07.996Z,0
2018-04-12T01:37:17.815Z,0
2018-04-12T01:38:27.900Z,0
2018-04-12T01:39:37.733Z,0
2018-04-12T01:40:47.562Z,0
2018-04-12T01:41:57.358Z,0
2018-04-12T01:43:07.436Z,0
2018-04-12T01:44:17.532Z,0
2018-04-12T01:45:27.628Z,0
2018-04-12T01:46:37.719Z,0
2018-04-12T01:47:47.801Z,0
2018-04-12T01:48:57.877Z,0
2018-04-12T01:50:07.940Z,0
2018-04-12T01:51:18.007Z,0
2018-04-12T01:52:28.084Z,0
2018-04-12T01:53:38.153Z,0
2018-04-12T01:54:48.237Z,0
2018-04-12T01:55:58.073Z,0
2018-04-12T01:57:08.138Z,0
2018-04-12T01:58:18.016Z,0
2018-04-12T01:59:28.096Z,0
2018-04-12T02:00:38.179Z,0
2018-04-12T02:01:48.263Z,0
2018-04-12T02:02:58.366Z,0
2018-04-12T02:04:08.432Z,0
2018-04-12T02:05:17.989Z,0
2018-04-12T02:06:28.075Z,0
2018-04-12T02:07:37.878Z,0
2018-04-12T02:08:47.696Z,0
2018-04-12T02:09:57.537Z,0
2018-04-12T02:11:07.617Z,0
2018-04-12T02:12:17.427Z,0
2018-04-12T02:13:27.236Z,0
2018-04-12T02:14:37.302Z,0
2018-04-12T02:15:47.377Z,0
2018-04-12T02:16:57.180Z,0
2018-04-12T02:18:06.996Z,0
2018-04-12T02:19:17.066Z,0
2018-04-12T02:20:27.158Z,0
2018-04-12T02:21:37.244Z,0
2018-04-12T02:22:47.418Z,0
2018-04-12T02:23:57.514Z,0
2018-04-12T02:25:07.598Z,0
2018-04-12T02:26:17.674Z,0
2018-04-12T02:27:27.771Z,0
2018-04-12T02:28:37.860Z,0
2018-04-12T02:29:47.947Z,0
2018-04-12T02:30:57.771Z,0
2018-04-12T02:32:07.845Z,0
2018-04-12T02:33:17.720Z,0
2018-04-12T02:34:27.813Z,0
2018-04-12T02:35:37.904Z,0
2018-04-12T02:36:47.995Z,0
2018-04-12T02:37:58.062Z,0
2018-04-12T02:39:08.137Z,0
2018-04-12T02:40:18.235Z,0
2018-04-12T02:41:28.039Z,0
2018-04-12T02:42:38.132Z,0
2018-04-12T02:43:48.234Z,0
2018-04-12T02:44:58.329Z,0
2018-04-12T02:46:08.407Z,0
2018-04-12T02:47:18.478Z,0
2018-04-12T02:48:28.601Z,0
2018-04-12T02:49:38.674Z,0
2018-04-12T02:50:48.791Z,0
2018-04-12T02:51:58.353Z,0
2018-04-12T02:53:08.440Z,0
2018-04-12T02:54:18.532Z,0
2018-04-12T02:55:28.661Z,0
2018-04-12T02:56:38.735Z,0
2018-04-12T02:57:48.571Z,0
2018-04-12T02:58:58.394Z,0
2018-04-12T03:00:08.487Z,0
2018-04-12T03:01:18.564Z,0
2018-04-12T03:02:28.640Z,0
2018-04-12T03:34:02.664Z,0
2018-04-12T03:35:12.726Z,0
2018-04-12T03:36:22.254Z,0
2018-04-12T03:37:32.316Z,0
2018-04-12T03:38:42.397Z,0
2018-04-12T03:39:52.484Z,0
2018-04-12T03:41:02.560Z,0
2018-04-12T03:42:12.449Z,0
2018-04-12T03:43:22.529Z,0
2018-04-12T03:44:32.619Z,0
2018-04-12T03:45:42.709Z,0
2018-04-12T03:46:52.783Z,0
2018-04-12T03:48:02.833Z,0
2018-04-12T03:49:13.345Z,0
2018-04-12T03:50:23.632Z,0
2018-04-12T03:51:33.735Z,0
2018-04-12T03:52:43.547Z,0
2018-04-12T03:53:53.636Z,0
2018-04-12T03:55:03.707Z,0
2018-04-12T03:56:13.523Z,0
2018-04-12T03:57:23.413Z,0
2018-04-12T03:58:33.245Z,0
2018-04-12T03:59:43.054Z,0
2018-04-12T04:00:52.878Z,0
2018-04-12T04:02:02.706Z,0
2018-04-12T04:03:12.786Z,0
2018-04-12T04:04:22.581Z,0
2018-04-12T04:05:32.411Z,0
2018-04-12T04:06:42.474Z,0
2018-04-12T04:07:52.558Z,0
2018-04-12T04:09:02.693Z,0
2018-04-12T04:10:12.774Z,0
2018-04-12T04:11:22.852Z,5
2018-04-12T04:12:32.944Z,5
2018-04-12T04:13:42.997Z,5
2018-04-12T04:14:52.866Z,5
2018-04-12T04:16:02.662Z,5
2018-04-12T04:17:12.742Z,10
2018-04-12T04:18:22.567Z,10
2018-04-12T04:19:32.647Z,10
2018-04-12T04:20:42.489Z,10
2018-04-12T04:21:52.553Z,15
2018-04-12T04:23:02.639Z,15
2018-04-12T04:24:12.725Z,15
2018-04-12T04:25:22.798Z,20
2018-04-12T04:26:32.872Z,20
2018-04-12T04:27:42.950Z,20
2018-04-12T04:28:52.504Z,20
2018-04-12T04:30:02.351Z,25
2018-04-12T04:31:12.446Z,25
2018-04-12T04:32:22.302Z,25
2018-04-12T04:33:32.370Z,25
2018-04-12T04:34:42.449Z,25
2018-04-12T04:35:52.539Z,30
2018-04-12T04:37:02.611Z,30
2018-04-12T04:38:12.158Z,35
2018-04-12T04:39:21.988Z,35
2018-04-12T04:40:32.066Z,35
2018-04-12T04:41:42.161Z,40
2018-04-12T04:42:52.269Z,45
2018-04-12T04:44:02.122Z,45
2018-04-12T04:45:12.214Z,50
2018-04-12T04:46:22.291Z,45
2018-04-12T04:47:32.375Z,45
2018-04-12T04:48:42.452Z,45
2018-04-12T04:49:52.526Z,45
2018-04-12T04:51:02.605Z,55
2018-04-12T04:52:12.691Z,60
2018-04-12T04:53:22.820Z,65
2018-04-12T04:54:32.900Z,75
2018-04-12T04:55:43.006Z,70
2018-04-12T04:56:53.119Z,60
2018-04-12T04:58:02.949Z,60
2018-04-12T04:59:13.053Z,65
2018-04-12T05:00:23.140Z,70
2018-04-12T05:01:33.427Z,80
2018-04-12T05:02:43.495Z,80
2018-04-12T05:03:53.312Z,85
2018-04-12T05:05:03.418Z,85
2018-04-12T05:06:13.514Z,85
2018-04-12T05:07:23.663Z,85
2018-04-12T05:08:33.765Z,90
2018-04-12T05:09:43.844Z,100
2018-04-12T05:10:53.935Z,100
2018-04-12T05:12:04.023Z,100
2018-04-12T05:13:14.091Z,95
2018-04-12T05:14:23.915Z,90
2018-04-12T05:15:34.010Z,90
2018-04-12T05:16:43.857Z,95
2018-04-12T05:17:53.693Z,100
2018-04-12T05:19:03.755Z,115
2018-04-12T05:20:13.832Z,120
2018-04-12T05:21:23.927Z,130
2018-04-12T05:22:33.752Z,140
2018-04-12T05:23:43.573Z,140
2018-04-12T05:24:53.459Z,140
2018-04-12T05:26:03.013Z,150
2018-04-12T05:27:13.107Z,135
2018-04-12T05:28:23.212Z,130
2018-04-12T05:29:33.294Z,140
2018-04-12T05:30:43.385Z,140
2018-04-12T05:31:53.214Z,135
2018-04-12T05:33:03.317Z,135
2018-04-12T05:34:13.154Z,135
2018-04-12T05:35:22.968Z,135
2018-04-12T05:36:32.816Z,145
2018-04-12T05:37:42.893Z,155
2018-04-12T05:38:52.970Z,160
2018-04-12T05:40:02.775Z,165
2018-04-12T05:41:12.882Z,165
2018-04-12T05:42:22.964Z,165
2018-04-12T05:43:33.041Z,155
2018-04-12T05:44:43.136Z,155
2018-04-12T05:45:53.226Z,155
2018-04-12T05:47:02.764Z,150
2018-04-12T05:48:12.902Z,155
2018-04-12T05:49:22.998Z,160
2018-04-12T05:50:32.834Z,160
2018-04-12T05:51:42.916Z,155
2018-04-12T05:52:53.067Z,155
2018-04-12T05:54:03.157Z,165
2018-04-12T05:55:13.209Z,160
2018-04-12T05:56:23.281Z,165
2018-04-12T05:57:33.105Z,160
2018-04-12T05:58:43.187Z,150
2018-04-12T05:59:53.274Z,150
2018-04-12T06:01:03.105Z,150
2018-04-12T06:02:13.209Z,155
2018-04-12T06:03:23.024Z,165
2018-04-12T06:04:33.121Z,165
2018-04-12T06:05:43.210Z,160
2018-04-12T06:06:53.301Z,160
2018-04-12T06:08:02.852Z,160
2018-04-12T06:09:12.678Z,160
2018-04-12T06:10:22.760Z,165
2018-04-12T06:11:32.591Z,160
2018-04-12T06:12:42.558Z,160
2018-04-12T06:13:52.631Z,160
2018-04-12T06:15:02.733Z,160
2018-04-12T06:16:12.824Z,160
2018-04-12T06:17:22.691Z,170
2018-04-12T06:18:32.791Z,170
2018-04-12T06:19:42.637Z,170
2018-04-12T06:20:52.434Z,170
2018-04-12T06:22:02.543Z,175
2018-04-12T06:23:12.355Z,180
2018-04-12T06:24:22.165Z,185
2018-04-12T06:25:31.991Z,185
2018-04-12T06:26:42.122Z,190
2018-04-12T06:27:51.944Z,190
2018-04-12T06:29:02.034Z,190
2018-04-12T06:30:11.860Z,195
2018-04-12T06:31:21.948Z,195
2018-04-12T06:32:31.509Z,190
2018-04-12T06:33:41.627Z,190
2018-04-12T06:34:51.710Z,190
2018-04-12T06:36:01.798Z,190
2018-04-12T06:37:11.602Z,190
2018-04-12T06:38:21.688Z,190
2018-04-12T06:39:31.775Z,190
2018-04-12T06:40:41.913Z,190
2018-04-12T06:41:51.747Z,190
2018-04-12T06:43:01.308Z,195
2018-04-12T06:44:11.395Z,200
2018-04-12T06:45:21.481Z,200
2018-04-12T06:46:31.291Z,210
2018-04-12T06:47:41.371Z,215
2018-04-12T06:48:51.487Z,220
2018-04-12T06:50:01.575Z,220
2018-04-12T06:51:11.657Z,220
2018-04-12T06:52:21.797Z,225
2018-04-12T06:53:31.902Z,230
2018-04-12T06:54:41.982Z,235
2018-04-12T06:55:52.067Z,240
2018-04-12T06:57:02.155Z,235
2018-04-12T06:58:12.246Z,240
2018-04-12T06:59:22.336Z,245
2018-04-12T07:00:32.405Z,245
2018-04-12T07:01:42.473Z,250
2018-04-12T07:02:52.555Z,245
2018-04-12T07:04:02.643Z,245
2018-04-12T07:05:12.726Z,245
2018-04-12T07:06:22.592Z,240
2018-04-12T07:07:32.409Z,240
2018-04-12T07:08:42.497Z,240
2018-04-12T07:09:52.335Z,235
2018-04-12T07:11:02.467Z,225
2018-04-12T07:12:12.548Z,225
2018-04-12T07:13:22.360Z,230
2018-04-12T07:14:32.466Z,230
2018-04-12T07:15:42.556Z,235
2018-04-12T07:16:52.378Z,235
2018-04-12T07:18:02.494Z,240
2018-04-12T07:19:12.367Z,230
2018-04-12T07:20:22.184Z,225
2018-04-12T07:21:32.302Z,225
2018-04-12T07:22:42.149Z,225
2018-04-12T07:23:51.996Z,225
2018-04-12T07:25:02.076Z,225
2018-04-12T07:26:12.285Z,225
2018-04-12T07:27:22.368Z,225
2018-04-12T07:28:32.497Z,225
2018-04-12T07:29:42.568Z,225
2018-04-12T07:30:52.149Z,225
2018-04-12T07:32:01.970Z,230
2018-04-12T07:33:12.053Z,225
2018-04-12T07:34:21.899Z,225
2018-04-12T07:35:31.998Z,230
2018-04-12T07:36:42.107Z,230
2018-04-12T07:37:52.204Z,230
2018-04-12T07:39:02.294Z,230
2018-04-12T07:40:12.475Z,225
2018-04-12T07:41:22.296Z,230
2018-04-12T07:42:32.383Z,225
2018-04-12T07:43:42.661Z,225
2018-04-12T07:44:52.810Z,230
2018-04-12T07:46:02.952Z,230
2018-04-12T07:47:13.029Z,230
2018-04-12T07:48:24.267Z,230
2018-04-12T07:49:36.555Z,230
2018-04-12T07:50:46.926Z,235
2018-04-12T07:51:57.086Z,235
2018-04-12T07:53:07.158Z,235
2018-04-12T07:54:17.239Z,240
2018-04-12T07:55:27.339Z,235
2018-04-12T07:56:37.509Z,230
2018-04-12T07:57:47.335Z,235
2018-04-12T07:58:57.418Z,235
2018-04-12T08:00:07.508Z,235
2018-04-12T08:01:17.577Z,235
2018-04-12T08:02:27.677Z,235
2018-04-12T08:03:37.774Z,235
2018-04-12T08:04:47.862Z,235
2018-04-12T08:05:57.682Z,230
2018-04-12T08:07:07.252Z,230
2018-04-12T08:08:17.348Z,230
2018-04-12T08:09:27.420Z,230
2018-04-12T08:10:37.519Z,225
2018-04-12T08:11:47.671Z,225
2018-04-12T08:12:57.749Z,225
2018-04-12T08:14:07.823Z,220
2018-04-12T08:15:17.441Z,220
2018-04-12T08:16:27.658Z,220
2018-04-12T08:17:37.757Z,215
2018-04-12T08:18:47.848Z,210
2018-04-12T08:19:57.938Z,210
2018-04-12T08:21:08.089Z,215
2018-04-12T08:22:18.189Z,215
2018-04-12T08:23:28.013Z,220
2018-04-12T08:24:37.557Z,210
2018-04-12T08:25:47.383Z,215
2018-04-12T08:26:57.460Z,215
2018-04-12T08:28:07.297Z,215
2018-04-12T08:29:17.374Z,215
2018-04-12T08:30:27.199Z,215
2018-04-12T08:31:37.328Z,215
2018-04-12T08:32:47.411Z,210
2018-04-12T08:33:57.531Z,205
2018-04-12T08:35:07.617Z,205
2018-04-12T08:36:17.445Z,205
2018-04-12T08:37:27.275Z,205
2018-04-12T08:38:37.353Z,205
2018-04-12T08:39:47.426Z,205
2018-04-12T08:40:57.535Z,205
2018-04-12T08:42:07.613Z,210
2018-04-12T08:43:17.705Z,205
2018-04-12T08:44:27.783Z,205
2018-04-12T08:45:37.614Z,205
2018-04-12T08:46:47.450Z,205
2018-04-12T08:47:57.533Z,205
2018-04-12T08:49:07.614Z,205
2018-04-12T08:50:17.686Z,205
2018-04-12T08:51:27.248Z,205
2018-04-12T08:52:37.072Z,205
2018-04-12T08:53:47.157Z,205
2018-04-12T08:54:56.995Z,205
2018-04-12T08:56:07.119Z,205
2018-04-12T08:57:17.252Z,205
2018-04-12T08:58:27.356Z,205
2018-04-12T08:59:37.442Z,205
2018-04-12T09:00:47.535Z,205
2018-04-12T09:01:57.668Z,205
2018-04-12T09:03:07.770Z,205
2018-04-12T09:04:17.877Z,205
2018-04-12T09:05:27.991Z,205
2018-04-12T09:06:38.163Z,205
2018-04-12T09:07:48.299Z,210
2018-04-12T09:08:59.716Z,205
2018-04-12T09:10:11.089Z,200
2018-04-12T09:11:22.142Z,205
2018-04-12T09:12:32.451Z,205
2018-04-12T09:13:43.898Z,205
2018-04-12T09:14:55.546Z,205
2018-04-12T09:16:06.378Z,210
2018-04-12T09:17:18.230Z,210
2018-04-12T09:18:29.454Z,210
2018-04-12T09:19:39.740Z,210
2018-04-12T09:20:49.837Z,210
2018-04-12T09:21:59.946Z,210
2018-04-12T09:23:10.062Z,210
2018-04-12T09:24:20.227Z,210
2018-04-12T09:25:30.066Z,210
2018-04-12T09:26:40.198Z,210
2018-04-12T09:27:50.435Z,210
2018-04-12T09:29:00.270Z,215
2018-04-12T09:30:10.445Z,215
2018-04-12T09:31:20.559Z,215
2018-04-12T09:32:30.414Z,215
2018-04-12T09:33:40.522Z,215
2018-04-12T09:34:50.405Z,215
2018-04-12T09:36:00.882Z,215
2018-04-12T09:37:10.746Z,215
2018-04-12T09:38:20.600Z,215
2018-04-12T09:39:30.968Z,215
2018-04-12T09:40:41.049Z,220
2018-04-12T09:41:50.869Z,220
2018-04-12T09:43:00.722Z,220
2018-04-12T09:44:10.877Z,220
2018-04-12T09:45:20.981Z,220
2018-04-12T09:46:31.263Z,220
2018-04-12T09:47:41.085Z,220
2018-04-12T09:48:50.654Z,220
2018-04-12T09:50:00.762Z,215
2018-04-12T09:51:10.609Z,215
2018-04-12T09:52:20.687Z,215
2018-04-12T09:53:30.591Z,215
2018-04-12T09:54:40.425Z,220
2018-04-12T09:55:50.547Z,220
2018-04-12T09:57:00.413Z,230
2018-04-12T09:58:10.515Z,220
2018-04-12T09:59:20.607Z,225
2018-04-12T10:00:30.479Z,220
2018-04-12T10:01:41.172Z,220
2018-04-12T10:02:51.367Z,220
2018-04-12T10:04:01.443Z,220
2018-04-12T10:05:11.623Z,220
2018-04-12T10:06:21.748Z,220
2018-04-12T10:07:31.591Z,225
2018-04-12T10:08:41.470Z,225
2018-04-12T10:09:51.258Z,225
2018-04-12T10:11:01.317Z,225
2018-04-12T10:12:11.138Z,225
2018-04-12T10:13:21.244Z,225
2018-04-12T10:14:31.351Z,225
2018-04-12T10:15:41.448Z,225
2018-04-12T10:16:51.663Z,225
2018-04-12T10:18:01.766Z,225
2018-04-12T10:19:11.852Z,225
2018-04-12T10:20:21.948Z,225
2018-04-12T10:21:32.041Z,225
2018-04-12T10:22:41.898Z,225
2018-04-12T10:23:52.001Z,225
2018-04-12T10:25:02.098Z,225
2018-04-12T10:26:12.224Z,225
2018-04-12T10:27:22.565Z,230
2018-04-12T10:28:32.408Z,230
2018-04-12T10:29:42.250Z,230
2018-04-12T10:30:52.334Z,230
2018-04-12T10:32:02.425Z,230
2018-04-12T10:33:12.997Z,230
2018-04-12T10:34:23.173Z,230
2018-04-12T10:35:33.282Z,230
2018-04-12T10:36:42.850Z,230
2018-04-12T10:37:52.974Z,230
2018-04-12T10:39:03.331Z,230
2018-04-12T10:40:13.234Z,235
2018-04-12T10:41:23.329Z,235
2018-04-12T10:42:33.451Z,240
2018-04-12T10:43:43.547Z,235
2018-04-12T10:44:53.679Z,230
2018-04-12T10:46:03.852Z,230
2018-04-12T10:47:13.974Z,230
2018-04-12T10:48:24.053Z,230
2018-04-12T10:49:34.154Z,235
2018-04-12T10:50:44.245Z,230
2018-04-12T10:51:54.166Z,235
2018-04-12T10:53:04.269Z,235
2018-04-12T10:54:14.381Z,240
2018-04-12T10:55:24.476Z,245
2018-04-12T10:56:34.578Z,255
2018-04-12T10:57:44.476Z,255
2018-04-12T10:58:54.321Z,265
2018-04-12T11:00:04.165Z,270
2018-04-12T11:01:14.301Z,280
2018-04-12T11:02:24.421Z,290
2018-04-12T11:03:34.759Z,295
2018-04-12T11:04:44.593Z,300
2018-04-12T11:05:54.434Z,300
2018-04-12T11:07:04.553Z,305
2018-04-12T11:08:14.683Z,305
2018-04-12T11:09:24.776Z,305
2018-04-12T11:10:34.893Z,305
2018-04-12T11:11:44.722Z,305
2018-04-12T11:12:54.860Z,305
2018-04-12T11:14:04.696Z,305
2018-04-12T11:15:14.547Z,305
2018-04-12T11:16:24.377Z,305
2018-04-12T11:17:34.471Z,305
2018-04-12T11:18:44.575Z,300
2018-04-12T11:19:54.436Z,300
2018-04-12T11:21:04.674Z,295
2018-04-12T11:22:14.856Z,290
2018-04-12T11:23:25.116Z,280
2018-04-12T11:24:35.319Z,275
2018-04-12T11:25:45.448Z,280
2018-04-12T11:26:55.629Z,275
2018-04-12T11:28:05.727Z,270
2018-04-12T11:29:15.843Z,270
2018-04-12T11:30:25.998Z,270
2018-04-12T11:31:36.300Z,270
2018-04-12T11:32:45.918Z,270
2018-04-12T11:33:56.043Z,270
2018-04-12T11:35:06.378Z,275
2018-04-12T11:36:16.233Z,275
2018-04-12T11:37:26.345Z,280
2018-04-12T11:38:36.176Z,280
2018-04-12T11:39:46.509Z,280
2018-04-12T11:40:56.609Z,280
2018-04-12T11:42:06.693Z,280
2018-04-12T11:43:16.790Z,275
2018-04-12T11:44:26.911Z,275
2018-04-12T11:45:37.106Z,275
2018-04-12T11:46:47.345Z,270
2018-04-12T11:47:57.225Z,270
2018-04-12T11:49:07.537Z,265
2018-04-12T11:50:17.685Z,260
2018-04-12T11:51:27.786Z,260
2018-04-12T11:52:37.937Z,255
2018-04-12T11:53:48.084Z,255
2018-04-12T11:54:58.201Z,250
2018-04-12T11:56:08.467Z,250
2018-04-12T11:57:18.621Z,240
2018-04-12T11:58:28.721Z,240
2018-04-12T11:59:38.830Z,240
2018-04-12T12:00:49.599Z,240
2018-04-12T12:01:59.872Z,240
2018-04-12T12:03:11.269Z,240
2018-04-12T12:04:22.919Z,240
2018-04-12T12:05:32.921Z,240
2018-04-12T12:06:43.040Z,240
2018-04-12T12:07:52.891Z,240
2018-04-12T12:09:02.999Z,240
2018-04-12T12:10:13.162Z,240
2018-04-12T12:11:23.295Z,240
2018-04-12T12:12:33.541Z,240
2018-04-12T12:13:43.413Z,245
2018-04-12T12:14:53.470Z,245
2018-04-12T12:16:03.565Z,245
2018-04-12T12:17:13.673Z,240
2018-04-12T12:18:23.772Z,245
2018-04-12T12:19:33.905Z,245
2018-04-12T12:20:43.742Z,240
2018-04-12T12:21:53.988Z,245
2018-04-12T12:23:03.829Z,240
2018-04-12T12:24:13.678Z,240
2018-04-12T12:25:23.790Z,240
2018-04-12T12:26:33.899Z,240
2018-04-12T12:27:43.758Z,240
2018-04-12T12:28:53.996Z,240
2018-04-12T12:30:04.122Z,240
2018-04-12T12:31:14.217Z,240
2018-04-12T12:32:24.320Z,235
2018-04-12T12:33:34.189Z,235
2018-04-12T12:34:44.331Z,235
2018-04-12T12:35:54.441Z,235
2018-04-12T12:37:04.547Z,235
2018-04-12T12:38:14.649Z,240
2018-04-12T12:39:24.531Z,235
2018-04-12T12:40:34.118Z,235
2018-04-12T12:41:44.233Z,235
2018-04-12T12:42:54.377Z,235
2018-04-12T12:44:04.513Z,240
2018-04-12T12:45:14.648Z,235
2018-04-12T12:46:24.749Z,235
2018-04-12T12:47:34.584Z,235
2018-04-12T12:48:44.686Z,230
2018-04-12T12:49:54.787Z,230
2018-04-12T12:51:04.897Z,230
2018-04-12T12:52:15.006Z,235
2018-04-12T12:53:25.103Z,230
2018-04-12T12:54:35.192Z,235
2018-04-12T12:55:45.299Z,235
2018-04-12T12:56:55.400Z,235
2018-04-12T12:58:05.488Z,240
2018-04-12T12:59:15.299Z,240
2018-04-12T13:00:25.205Z,240
2018-04-12T13:01:35.310Z,235
2018-04-12T13:02:45.462Z,195
2018-04-12T13:03:55.627Z,230
2018-04-12T13:05:05.726Z,245
2018-04-12T13:06:15.555Z,230
2018-04-12T13:07:25.142Z,210
2018-04-12T13:08:35.510Z,240
2018-04-12T13:09:45.609Z,235
2018-04-12T13:10:55.748Z,235
2018-04-12T13:12:05.853Z,235
2018-04-12T13:13:15.972Z,235
2018-04-12T13:14:26.182Z,230
2018-04-12T13:15:36.488Z,235
2018-04-12T13:16:46.593Z,240
2018-04-12T13:17:56.730Z,240
2018-04-12T13:19:06.565Z,235
2018-04-12T13:20:16.660Z,235
2018-04-12T13:21:26.762Z,230
2018-04-12T13:22:37.103Z,225
2018-04-12T13:23:47.206Z,225
2018-04-12T13:24:57.313Z,230
2018-04-12T13:26:07.148Z,230
2018-04-12T13:27:17.251Z,225
2018-04-12T13:28:27.378Z,220
2018-04-12T13:29:37.220Z,215
2018-04-12T13:30:47.310Z,215
2018-04-12T13:31:57.448Z,190
2018-04-12T13:33:07.532Z,195
2018-04-12T13:34:17.437Z,190
2018-04-12T13:35:27.554Z,185
2018-04-12T13:36:37.471Z,185
2018-04-12T13:37:47.615Z,175
2018-04-12T13:38:57.701Z,225
2018-04-12T13:40:07.784Z,225
2018-04-12T13:41:17.877Z,225
2018-04-12T13:42:27.976Z,215
2018-04-12T13:43:47.540Z,195
2018-04-12T13:44:57.709Z,210
2018-04-12T13:46:07.557Z,215
2018-04-12T13:47:17.677Z,215
2018-04-12T13:48:27.764Z,215
2018-04-12T13:49:37.877Z,220
2018-04-12T13:50:47.971Z,225
2018-04-12T13:51:57.797Z,230
2018-04-12T13:53:07.650Z,225
2018-04-12T13:54:17.492Z,225
2018-04-12T13:55:27.162Z,220
2018-04-12T13:56:37.370Z,220
2018-04-12T13:57:47.485Z,215
2018-04-12T13:58:57.341Z,210
2018-04-12T14:00:07.187Z,165
2018-04-12T14:01:17.044Z,150
2018-04-12T14:02:27.143Z,150
2018-04-12T14:03:37.338Z,155
2018-04-12T14:04:47.521Z,170
2018-04-12T14:05:58.102Z,180
2018-04-12T14:07:08.272Z,180
2018-04-12T14:08:18.600Z,195
2018-04-12T14:09:28.987Z,190
2018-04-12T14:10:39.422Z,200
2018-04-12T14:11:49.696Z,215
2018-04-12T14:13:00.415Z,195
2018-04-12T14:14:10.590Z,205
2018-04-12T14:15:20.766Z,200
2018-04-12T14:16:30.698Z,220
2018-04-12T14:17:41.224Z,210
2018-04-12T14:18:51.491Z,175
2018-04-12T14:20:01.814Z,150
2018-04-12T14:21:11.452Z,160
2018-04-12T14:22:21.296Z,180
2018-04-12T14:23:31.414Z,180
2018-04-12T14:24:41.527Z,175
2018-04-12T14:25:51.368Z,145
2018-04-12T14:27:01.214Z,155
2018-04-12T14:28:11.319Z,120
2018-04-12T14:29:21.427Z,130
2018-04-12T14:30:31.275Z,145
2018-04-12T14:31:40.840Z,145
2018-04-12T14:32:50.939Z,145
2018-04-12T14:34:01.034Z,140
2018-04-12T14:35:11.147Z,165
2018-04-12T14:36:21.774Z,165
2018-04-12T14:37:31.910Z,170
2018-04-12T14:38:42.049Z,175
2018-04-12T14:39:52.167Z,170
2018-04-12T14:41:02.312Z,170
2018-04-12T14:42:12.402Z,175
2018-04-12T14:43:22.253Z,175
2018-04-12T14:44:32.116Z,165
2018-04-12T14:45:42.237Z,165
2018-04-12T14:46:52.440Z,150
2018-04-12T14:48:02.351Z,160
2018-04-12T14:49:12.466Z,165
2018-04-12T14:50:22.586Z,130
2018-04-12T14:51:32.446Z,115
2018-04-12T14:52:42.538Z,125
2018-04-12T14:53:52.155Z,120
2018-04-12T14:55:02.024Z,105
2018-04-12T14:56:12.164Z,105
2018-04-12T14:57:22.327Z,100
2018-04-12T14:58:32.522Z,100
2018-04-12T14:59:42.643Z,95
2018-04-12T15:00:52.834Z,95
2018-04-12T15:02:02.964Z,100
2018-04-12T15:03:13.067Z,100
2018-04-12T15:04:23.197Z,105
2018-04-12T15:05:32.787Z,110
2018-04-12T15:06:42.921Z,120
2018-04-12T15:07:53.028Z,135
2018-04-12T15:09:03.346Z,155
2018-04-12T15:10:13.442Z,170
2018-04-12T15:11:23.531Z,175
2018-04-12T15:12:33.385Z,180
2018-04-12T15:13:43.487Z,175
2018-04-12T15:14:53.069Z,165
2018-04-12T15:16:03.215Z,175
2018-04-12T15:17:13.361Z,180
2018-04-12T15:18:23.481Z,185
2018-04-12T15:19:33.315Z,190
2018-04-12T15:20:43.177Z,185
2018-04-12T15:21:53.024Z,185
2018-04-12T15:23:02.849Z,165
2018-04-12T15:24:12.702Z,175
2018-04-12T15:25:22.831Z,165
2018-04-12T15:26:33.162Z,145
2018-04-12T15:27:43.295Z,135
2018-04-12T15:28:53.147Z,125
2018-04-12T15:30:03.265Z,130
2018-04-12T15:31:13.125Z,130
2018-04-12T15:32:23.080Z,125
2018-04-12T15:33:33.207Z,130
2018-04-12T15:34:43.348Z,120
2018-04-12T15:35:53.480Z,135
2018-04-12T15:37:03.635Z,135
2018-04-12T15:38:13.733Z,120
2018-04-12T15:39:23.966Z,120
2018-04-12T15:40:34.070Z,135
2018-04-12T15:41:44.203Z,130
2018-04-12T15:42:54.306Z,120
2018-04-12T15:44:04.633Z,115
2018-04-12T15:45:14.811Z,110
2018-04-12T15:46:24.904Z,120
2018-04-12T15:47:35.048Z,120
2018-04-12T15:48:45.157Z,120
2018-04-12T15:49:55.286Z,125
2018-04-12T15:51:05.433Z,115
2018-04-12T15:52:15.569Z,120
2018-04-12T15:53:25.641Z,120
2018-04-12T15:54:35.456Z,115
2018-04-12T15:55:45.569Z,115
2018-04-12T15:56:55.721Z,125
2018-04-12T15:58:05.811Z,120
2018-04-12T15:59:15.922Z,115
2018-04-12T16:00:26.090Z,115
2018-04-12T16:01:35.999Z,100
2018-04-12T16:02:46.132Z,100
2018-04-12T16:03:56.231Z,95
2018-04-12T16:05:06.366Z,85
2018-04-12T16:06:16.708Z,80
2018-04-12T16:07:26.841Z,75
2018-04-12T16:08:36.758Z,80
2018-04-12T16:09:46.890Z,80
2018-04-12T16:10:57.062Z,85
2018-04-12T16:12:07.407Z,85
2018-04-12T16:13:17.709Z,85
2018-04-12T16:14:27.872Z,85
2018-04-12T16:15:37.986Z,85
2018-04-12T16:16:48.163Z,85
2018-04-12T16:17:58.312Z,80
2018-04-12T16:19:08.431Z,75
2018-04-12T16:20:18.269Z,75
2018-04-12T16:21:28.405Z,75
2018-04-12T16:22:38.519Z,65
2018-04-12T16:23:48.630Z,70
2018-04-12T16:24:58.785Z,60
2018-04-12T16:26:08.679Z,60
2018-04-12T16:27:18.791Z,60
2018-04-12T16:28:28.172Z,60
2018-04-12T16:29:38.278Z,55
2018-04-12T16:30:48.384Z,55
2018-04-12T16:31:58.548Z,55
2018-04-12T16:33:08.650Z,50
2018-04-12T16:34:18.789Z,50
2018-04-12T16:35:28.939Z,50
2018-04-12T16:36:38.786Z,50
2018-04-12T16:37:48.638Z,45
2018-04-12T16:38:58.810Z,45
2018-04-12T16:40:08.980Z,40
2018-04-12T16:41:19.157Z,40
2018-04-12T16:42:29.287Z,40
2018-04-12T16:43:39.518Z,40
2018-04-12T16:44:49.623Z,40
2018-04-12T16:45:59.470Z,35
2018-04-12T16:47:09.588Z,35
2018-04-12T16:48:19.681Z,30
2018-04-12T16:49:29.581Z,30
2018-04-12T16:50:39.423Z,30
2018-04-12T16:51:49.524Z,25
2018-04-12T16:52:59.627Z,25
2018-04-12T16:54:09.728Z,20